Time;durP1;ratioP1;P1;durP2;ratioP2;P2;SDS_P1;SDS_P2;PMS_P1;PMS_P2;Temp;Humidity;BMP_temperature;BMP_pressure;BME280_temperature;BME280_humidity;BME280_pressure;Samples;Min_cycle;Max_cycle;Signal;HPM_P1;HPM_P2
2023/11/25 00:00:42;;;;;;;2.83;2.63;;;2.30;66.50;;;;;;5024161;28;20680;-65
2023/11/25 00:03:09;;;;;;;3.63;3.00;;;2.30;66.70;;;;;;5027756;28;20228;-66
2023/11/25 00:05:35;;;;;;;3.03;2.30;;;2.30;66.60;;;;;;5026428;28;20724;-63
2023/11/25 00:08:02;;;;;;;4.47;2.80;;;2.30;66.60;;;;;;5024792;28;20312;-64
2023/11/25 00:10:29;;;;;;;5.73;3.00;;;2.30;66.50;;;;;;5027907;28;20237;-63
2023/11/25 00:12:58;;;;;;;4.60;3.00;;;2.30;66.90;;;;;;5016037;28;20617;-64
2023/11/25 00:15:24;;;;;;;4.27;2.60;;;2.30;65.90;;;;;;5026667;28;20263;-65
2023/11/25 00:17:52;;;;;;;2.63;2.40;;;2.30;65.70;;;;;;5022472;28;20296;-64
2023/11/25 00:20:18;;;;;;;4.23;2.90;;;2.20;66.60;;;;;;5021163;28;20644;-63
2023/11/25 00:22:45;;;;;;;3.87;3.07;;;2.20;65.90;;;;;;5029188;28;20300;-63
2023/11/25 00:25:12;;;;;;;3.47;2.90;;;2.30;66.30;;;;;;5022427;28;20312;-63
2023/11/25 00:27:39;;;;;;;3.17;2.70;;;2.30;66.90;;;;;;5025846;28;20216;-64
2023/11/25 00:30:05;;;;;;;3.10;2.90;;;2.30;65.70;;;;;;5022696;28;20203;-64
2023/11/25 00:32:36;;;;;;;4.00;2.83;;;2.30;65.50;;;;;;5027808;28;20648;-64
2023/11/25 00:35:03;;;;;;;3.73;2.37;;;2.30;65.20;;;;;;5032014;28;20271;-64
2023/11/25 00:37:30;;;;;;;3.73;2.70;;;2.30;64.80;;;;;;5028341;28;20626;-64
2023/11/25 00:39:56;;;;;;;2.93;2.50;;;2.30;65.40;;;;;;5023676;28;20233;-64
2023/11/25 00:42:23;;;;;;;3.87;2.50;;;2.30;64.50;;;;;;5031283;28;20232;-64
2023/11/25 00:44:49;;;;;;;2.33;2.03;;;2.30;64.60;;;;;;5029521;28;20723;-64
2023/11/25 00:47:16;;;;;;;2.73;2.40;;;2.30;63.80;;;;;;5022551;28;20230;-63
2023/11/25 00:49:44;;;;;;;5.43;2.70;;;2.30;63.70;;;;;;5023060;28;20210;-64
2023/11/25 00:52:11;;;;;;;3.37;2.30;;;2.30;63.80;;;;;;5029225;28;20215;-63
2023/11/25 00:54:37;;;;;;;2.83;2.37;;;2.40;62.70;;;;;;5029677;28;20273;-64
2023/11/25 00:57:04;;;;;;;2.40;2.20;;;2.50;61.60;;;;;;5020535;28;20203;-64
2023/11/25 00:59:30;;;;;;;2.80;2.60;;;2.40;61.80;;;;;;5030499;28;20209;-63
2023/11/25 01:01:57;;;;;;;3.07;2.70;;;2.40;62.60;;;;;;5020030;28;20213;-63
2023/11/25 01:04:24;;;;;;;5.63;2.83;;;2.40;62.50;;;;;;5029651;28;20225;-63
2023/11/25 01:06:50;;;;;;;3.37;2.93;;;2.40;64.00;;;;;;5021976;28;20658;-64
2023/11/25 01:09:19;;;;;;;2.80;2.60;;;2.10;68.30;;;;;;5022541;28;20222;-61
2023/11/25 01:11:45;;;;;;;4.10;2.80;;;2.00;70.80;;;;;;5025824;28;20263;-64
2023/11/25 01:14:12;;;;;;;2.90;2.70;;;1.90;71.10;;;;;;5027740;28;20305;-64
2023/11/25 01:16:38;;;;;;;2.70;2.50;;;2.00;70.90;;;;;;5021157;28;20260;-64
2023/11/25 01:19:05;;;;;;;2.40;2.20;;;2.10;70.10;;;;;;5021407;28;20205;-64
2023/11/25 01:21:31;;;;;;;3.63;2.40;;;2.10;69.50;;;;;;5021780;28;20210;-64
2023/11/25 01:23:58;;;;;;;2.53;2.43;;;2.10;69.30;;;;;;5031054;28;20205;-63
2023/11/25 01:26:24;;;;;;;3.00;2.70;;;2.10;69.00;;;;;;5025162;28;20295;-63
2023/11/25 01:28:52;;;;;;;2.93;2.40;;;2.10;67.10;;;;;;5026741;28;20552;-64
2023/11/25 01:31:18;;;;;;;2.90;2.70;;;2.30;67.10;;;;;;5018178;28;20217;-62
2023/11/25 01:33:45;;;;;;;6.10;2.70;;;2.30;66.30;;;;;;5018168;28;20265;-64
2023/11/25 01:36:11;;;;;;;2.97;2.37;;;2.20;67.90;;;;;;5024276;28;20233;-63
2023/11/25 01:38:38;;;;;;;2.50;2.30;;;2.20;68.90;;;;;;5027502;28;20255;-64
2023/11/25 01:41:04;;;;;;;3.83;2.10;;;2.00;72.50;;;;;;5021245;28;20209;-63
2023/11/25 01:43:31;;;;;;;2.10;2.00;;;1.80;74.20;;;;;;5029050;28;20695;-64
2023/11/25 01:45:57;;;;;;;1.90;1.80;;;1.70;73.10;;;;;;5026764;28;20257;-63
2023/11/25 01:48:24;;;;;;;1.93;1.83;;;1.80;72.00;;;;;;5022262;28;20206;-64
2023/11/25 01:50:50;;;;;;;2.10;2.00;;;1.90;71.10;;;;;;5025978;28;20245;-63
2023/11/25 01:53:19;;;;;;;2.90;2.20;;;1.90;71.30;;;;;;5027205;28;20240;-65
2023/11/25 01:55:46;;;;;;;2.30;2.10;;;1.80;70.40;;;;;;5029514;28;20228;-63
2023/11/25 01:58:13;;;;;;;2.50;2.30;;;1.90;69.80;;;;;;5026929;28;20233;-64
2023/11/25 02:00:39;;;;;;;2.40;2.20;;;1.90;69.80;;;;;;5028725;28;20213;-64
2023/11/25 02:03:06;;;;;;;2.17;2.07;;;1.80;71.60;;;;;;5027395;28;20210;-64
2023/11/25 02:05:32;;;;;;;2.20;2.00;;;1.70;73.40;;;;;;5032564;28;20274;-62
2023/11/25 02:07:59;;;;;;;1.93;1.83;;;1.80;72.90;;;;;;5022414;28;20208;-65
2023/11/25 02:10:26;;;;;;;2.10;2.00;;;1.80;69.40;;;;;;5018862;28;20215;-63
2023/11/25 02:12:52;;;;;;;3.80;2.13;;;1.80;68.50;;;;;;5032024;28;20265;-63
2023/11/25 02:15:19;;;;;;;2.10;1.90;;;1.80;67.70;;;;;;5024841;28;20233;-63
2023/11/25 02:17:45;;;;;;;2.20;2.10;;;1.90;64.30;;;;;;5032008;28;20208;-64
2023/11/25 02:20:13;;;;;;;3.23;2.20;;;1.90;63.80;;;;;;5021105;28;20614;-63
2023/11/25 02:22:40;;;;;;;1.97;1.87;;;2.00;63.50;;;;;;5028737;28;20632;-64
2023/11/25 02:25:07;;;;;;;2.40;2.07;;;2.00;61.90;;;;;;5023190;28;20227;-64
2023/11/25 02:27:34;;;;;;;2.30;2.20;;;2.00;63.60;;;;;;5023579;28;20575;-64
2023/11/25 02:30:02;;;;;;;2.33;2.13;;;1.90;63.60;;;;;;5024520;28;20209;-63
2023/11/25 02:32:29;;;;;;;2.30;2.20;;;1.90;63.30;;;;;;5021514;28;20221;-63
2023/11/25 02:34:55;;;;;;;1.90;1.80;;;2.00;61.50;;;;;;5024098;28;20251;-62
2023/11/25 02:37:22;;;;;;;2.00;1.90;;;1.80;61.50;;;;;;5024604;28;20232;-64
2023/11/25 02:39:49;;;;;;;2.47;2.20;;;1.70;60.60;;;;;;5026188;28;20262;-63
2023/11/25 02:42:17;;;;;;;2.10;2.00;;;1.70;61.20;;;;;;5023048;28;20690;-64
2023/11/25 02:44:44;;;;;;;2.30;2.20;;;1.60;61.70;;;;;;5028463;28;20621;-64
2023/11/25 02:47:10;;;;;;;2.10;2.00;;;1.60;60.50;;;;;;5024243;28;20237;-63
2023/11/25 02:49:37;;;;;;;2.17;2.07;;;1.60;60.10;;;;;;5027312;28;20582;-64
2023/11/25 02:52:04;;;;;;;2.20;2.00;;;1.60;61.20;;;;;;5024558;28;20251;-62
2023/11/25 02:54:31;;;;;;;2.43;2.23;;;1.60;59.90;;;;;;5020093;28;20668;-64
2023/11/25 02:56:57;;;;;;;2.60;2.50;;;1.50;59.50;;;;;;5016694;28;20207;-64
2023/11/25 02:59:24;;;;;;;2.50;2.40;;;1.50;59.90;;;;;;5026002;28;20631;-62
2023/11/25 03:01:52;;;;;;;2.10;2.00;;;1.50;59.30;;;;;;5020581;28;20242;-63
2023/11/25 03:04:19;;;;;;;2.40;2.20;;;1.40;60.10;;;;;;5025256;28;20201;-63
2023/11/25 03:06:46;;;;;;;2.50;2.40;;;1.40;60.40;;;;;;5027972;28;20212;-64
2023/11/25 03:09:13;;;;;;;2.23;2.13;;;1.40;60.40;;;;;;5022603;28;20294;-62
2023/11/25 03:11:39;;;;;;;2.50;2.30;;;1.30;60.70;;;;;;5018709;28;20580;-65
2023/11/25 03:14:06;;;;;;;3.07;1.90;;;1.30;60.30;;;;;;5018870;28;20302;-63
2023/11/25 03:16:33;;;;;;;2.20;2.10;;;1.30;60.50;;;;;;5022236;28;20263;-63
2023/11/25 03:18:59;;;;;;;2.37;2.23;;;1.20;60.20;;;;;;5019797;28;20218;-62
2023/11/25 03:21:26;;;;;;;3.53;2.07;;;1.30;60.20;;;;;;5022921;28;20235;-62
2023/11/25 03:23:53;;;;;;;2.40;2.20;;;1.40;59.00;;;;;;5025256;28;20216;-63
2023/11/25 03:26:19;;;;;;;3.03;2.00;;;1.40;58.70;;;;;;5016948;28;20332;-63
2023/11/25 03:28:45;;;;;;;2.10;1.97;;;1.50;58.30;;;;;;5025045;28;20300;-64
2023/11/25 03:31:12;;;;;;;2.53;2.20;;;1.40;57.80;;;;;;5019662;28;20202;-64
2023/11/25 03:33:39;;;;;;;2.50;2.30;;;1.50;57.40;;;;;;5023000;28;20236;-64
2023/11/25 03:36:05;;;;;;;3.20;2.10;;;1.60;57.30;;;;;;5023072;28;20231;-64
2023/11/25 03:38:32;;;;;;;2.23;2.10;;;1.40;57.40;;;;;;5027853;28;20243;-64
2023/11/25 03:40:58;;;;;;;2.20;2.07;;;1.40;57.70;;;;;;5020364;28;20711;-62
2023/11/25 03:43:25;;;;;;;2.33;2.23;;;1.40;57.40;;;;;;5020282;28;20270;-63
2023/11/25 03:45:52;;;;;;;2.10;2.00;;;1.40;58.20;;;;;;5021593;28;20220;-64
2023/11/25 03:48:18;;;;;;;2.37;2.27;;;1.40;58.00;;;;;;5021872;28;20204;-63
2023/11/25 03:50:45;;;;;;;2.37;2.27;;;1.40;57.50;;;;;;5022328;28;20228;-63
2023/11/25 03:53:11;;;;;;;2.23;2.13;;;1.40;57.80;;;;;;5018842;28;20295;-63
2023/11/25 03:55:39;;;;;;;2.20;2.10;;;1.40;57.50;;;;;;5019518;28;20256;-64
2023/11/25 03:58:05;;;;;;;2.63;2.53;;;1.40;57.80;;;;;;5030827;28;20235;-62
2023/11/25 04:00:33;;;;;;;2.07;1.97;;;1.30;57.80;;;;;;5020175;28;20285;-64
2023/11/25 04:03:00;;;;;;;2.60;2.40;;;1.30;58.50;;;;;;5029957;28;20208;-62
2023/11/25 04:05:26;;;;;;;2.37;2.20;;;1.40;57.80;;;;;;5026380;28;20278;-64
2023/11/25 04:07:53;;;;;;;2.40;2.20;;;1.30;57.60;;;;;;5025399;28;20235;-63
2023/11/25 04:10:20;;;;;;;2.10;2.00;;;1.40;57.60;;;;;;5026804;28;20581;-62
2023/11/25 04:12:46;;;;;;;3.30;2.60;;;1.40;58.30;;;;;;5025761;28;20225;-62
2023/11/25 04:15:13;;;;;;;3.00;2.70;;;1.30;57.60;;;;;;5031973;28;20235;-64
2023/11/25 04:17:39;;;;;;;3.17;2.40;;;1.50;56.90;;;;;;5026686;28;20212;-63
2023/11/25 04:20:12;;;;;;;2.30;1.90;;;1.50;57.20;;;;;;5021446;28;20262;-63
2023/11/25 04:22:39;;;;;;;2.20;2.10;;;1.40;57.60;;;;;;5025174;28;20227;-64
2023/11/25 04:25:05;;;;;;;2.53;2.33;;;1.50;57.10;;;;;;5028061;28;20273;-64
2023/11/25 04:27:32;;;;;;;2.30;2.10;;;1.50;57.30;;;;;;5025817;28;20274;-63
2023/11/25 04:29:58;;;;;;;2.47;2.33;;;1.40;57.10;;;;;;5029421;28;20924;-65
2023/11/25 04:32:26;;;;;;;3.20;2.17;;;1.40;57.20;;;;;;5024060;28;20214;-64
2023/11/25 04:34:52;;;;;;;2.13;2.03;;;1.30;57.00;;;;;;5033031;28;20246;-64
2023/11/25 04:37:19;;;;;;;2.10;1.90;;;1.30;57.60;;;;;;5027997;28;20666;-64
2023/11/25 04:39:46;;;;;;;2.50;2.40;;;1.40;57.90;;;;;;5023551;28;20208;-64
2023/11/25 04:42:13;;;;;;;2.67;2.50;;;1.30;57.60;;;;;;5026659;28;20316;-63
2023/11/25 04:44:39;;;;;;;2.60;2.30;;;1.20;57.50;;;;;;5025857;28;20259;-63
2023/11/25 04:47:06;;;;;;;4.13;2.67;;;1.10;57.90;;;;;;5026114;28;20263;-63
2023/11/25 04:49:33;;;;;;;2.20;2.00;;;1.20;57.40;;;;;;5023940;28;20232;-63
2023/11/25 04:52:01;;;;;;;2.70;2.50;;;1.20;58.10;;;;;;5027448;28;20237;-62
2023/11/25 04:54:28;;;;;;;2.17;2.03;;;1.30;58.50;;;;;;5030262;28;20212;-64
2023/11/25 04:56:54;;;;;;;3.97;2.27;;;1.30;58.00;;;;;;5020088;28;20745;-63
2023/11/25 04:59:21;;;;;;;4.00;1.93;;;1.40;57.60;;;;;;5033048;28;20265;-63
2023/11/25 05:01:48;;;;;;;2.20;2.10;;;1.40;57.60;;;;;;5025204;28;20236;-63
2023/11/25 05:04:14;;;;;;;2.40;2.20;;;1.30;58.10;;;;;;5024458;28;20211;-63
2023/11/25 05:06:41;;;;;;;2.40;2.20;;;1.40;57.80;;;;;;5025896;28;20322;-64
2023/11/25 05:09:07;;;;;;;2.57;2.43;;;1.40;57.70;;;;;;5025730;28;20671;-64
2023/11/25 05:11:34;;;;;;;2.50;2.10;;;1.40;57.10;;;;;;5023851;28;20283;-63
2023/11/25 05:14:02;;;;;;;2.63;2.43;;;1.40;57.10;;;;;;5024015;28;20255;-61
2023/11/25 05:16:29;;;;;;;2.87;2.50;;;1.40;57.00;;;;;;5023602;28;20324;-65
2023/11/25 05:18:55;;;;;;;2.40;2.30;;;1.30;56.70;;;;;;5021985;28;20234;-62
2023/11/25 05:21:22;;;;;;;2.50;2.30;;;1.30;56.60;;;;;;5029564;28;20215;-65
2023/11/25 05:23:49;;;;;;;3.83;2.50;;;1.30;57.50;;;;;;5029304;28;20235;-63
2023/11/25 05:26:16;;;;;;;3.20;2.87;;;1.30;56.00;;;;;;5025655;28;20797;-64
2023/11/25 05:28:43;;;;;;;2.43;2.23;;;1.40;56.00;;;;;;5030210;28;20205;-63
2023/11/25 05:31:09;;;;;;;2.47;2.30;;;1.40;56.30;;;;;;5019661;28;20251;-63
2023/11/25 05:33:36;;;;;;;2.57;2.37;;;1.40;56.10;;;;;;5030299;28;20204;-63
2023/11/25 05:36:02;;;;;;;3.50;2.30;;;1.40;56.00;;;;;;5024074;28;20227;-64
2023/11/25 05:38:29;;;;;;;2.73;2.43;;;1.40;56.50;;;;;;5027630;28;20212;-63
2023/11/25 05:40:55;;;;;;;3.50;2.50;;;1.20;56.70;;;;;;5024128;28;20301;-63
2023/11/25 05:43:24;;;;;;;2.60;2.40;;;1.40;56.30;;;;;;5022384;28;20216;-62
2023/11/25 05:45:51;;;;;;;2.43;2.30;;;1.40;56.00;;;;;;5024400;28;20279;-63
2023/11/25 05:48:18;;;;;;;2.43;2.23;;;1.40;56.00;;;;;;5031619;28;20242;-64
2023/11/25 05:50:44;;;;;;;3.83;2.10;;;1.40;56.10;;;;;;5027539;28;20219;-64
2023/11/25 05:53:11;;;;;;;2.70;2.50;;;1.50;56.10;;;;;;5026574;28;20306;-63
2023/11/25 05:55:37;;;;;;;2.67;2.47;;;1.40;56.10;;;;;;5023634;28;20232;-63
2023/11/25 05:58:04;;;;;;;2.23;2.13;;;1.40;56.90;;;;;;5028907;28;20218;-64
2023/11/25 06:00:31;;;;;;;2.33;2.23;;;1.30;56.90;;;;;;5026261;28;20240;-62
2023/11/25 06:02:57;;;;;;;2.27;2.17;;;1.10;57.40;;;;;;5027196;28;20204;-64
2023/11/25 06:05:24;;;;;;;2.27;2.10;;;1.10;57.50;;;;;;5027284;28;20861;-62
2023/11/25 06:07:50;;;;;;;2.80;2.60;;;1.20;57.90;;;;;;5025035;28;20213;-64
2023/11/25 06:10:18;;;;;;;2.53;2.20;;;1.20;57.40;;;;;;5025480;28;20292;-64
2023/11/25 06:12:45;;;;;;;2.50;2.30;;;1.10;57.80;;;;;;5023855;28;20216;-62
2023/11/25 06:15:13;;;;;;;4.40;2.27;;;1.00;58.40;;;;;;5025132;28;20319;-64
2023/11/25 06:17:39;;;;;;;3.40;2.30;;;0.90;58.30;;;;;;5027254;28;20212;-63
2023/11/25 06:20:06;;;;;;;2.20;2.10;;;0.90;58.80;;;;;;5031496;28;20262;-63
2023/11/25 06:22:32;;;;;;;2.80;2.60;;;0.80;59.20;;;;;;5028333;28;20207;-63
2023/11/25 06:25:00;;;;;;;4.20;2.40;;;0.90;58.20;;;;;;5026266;28;20247;-63
2023/11/25 06:27:26;;;;;;;2.90;2.10;;;0.80;58.50;;;;;;5020715;28;20209;-64
2023/11/25 06:29:53;;;;;;;2.20;2.10;;;0.80;58.10;;;;;;5025456;28;20231;-63
2023/11/25 06:32:19;;;;;;;2.40;2.30;;;0.80;58.00;;;;;;5025667;28;20204;-64
2023/11/25 06:34:46;;;;;;;2.47;2.27;;;0.80;58.10;;;;;;5022594;28;20252;-62
2023/11/25 06:37:14;;;;;;;3.37;2.53;;;0.90;57.80;;;;;;5025833;28;20293;-63
2023/11/25 06:39:40;;;;;;;2.30;2.10;;;0.80;57.10;;;;;;5024386;28;20225;-62
2023/11/25 06:42:09;;;;;;;2.80;2.60;;;0.90;56.90;;;;;;5022333;28;20232;-62
2023/11/25 06:44:36;;;;;;;2.20;2.10;;;0.80;56.40;;;;;;5026040;28;20559;-63
2023/11/25 06:47:03;;;;;;;2.93;2.73;;;0.80;56.50;;;;;;5018629;28;20223;-64
2023/11/25 06:49:30;;;;;;;2.70;2.50;;;0.90;56.80;;;;;;5018786;28;20300;-62
2023/11/25 06:51:57;;;;;;;2.67;2.27;;;1.00;56.40;;;;;;5023598;28;20207;-63
2023/11/25 06:54:24;;;;;;;2.47;2.37;;;1.00;56.60;;;;;;5021192;28;20212;-63
2023/11/25 06:56:51;;;;;;;2.10;2.00;;;1.10;56.20;;;;;;5019838;28;20227;-64
2023/11/25 06:59:17;;;;;;;2.53;2.33;;;1.10;55.80;;;;;;5023362;28;20742;-63
2023/11/25 07:01:45;;;;;;;5.27;2.57;;;1.00;56.40;;;;;;5027029;28;20250;-64
2023/11/25 07:04:11;;;;;;;2.50;2.30;;;1.00;56.60;;;;;;5016959;28;20299;-64
2023/11/25 07:06:38;;;;;;;4.37;2.10;;;1.10;55.80;;;;;;5022414;28;20306;-62
2023/11/25 07:09:04;;;;;;;2.53;2.33;;;1.10;55.80;;;;;;5024267;28;20208;-64
2023/11/25 07:11:31;;;;;;;4.07;2.33;;;1.00;55.50;;;;;;5018639;28;20216;-63
2023/11/25 07:13:57;;;;;;;2.27;2.07;;;1.10;55.70;;;;;;5016131;28;20585;-64
2023/11/25 07:16:24;;;;;;;3.00;2.30;;;1.00;56.00;;;;;;5023287;28;20262;-64
2023/11/25 07:18:50;;;;;;;3.47;2.30;;;1.00;55.80;;;;;;5027787;28;20236;-64
2023/11/25 07:21:17;;;;;;;4.33;2.43;;;1.10;55.60;;;;;;5028554;28;20661;-62
2023/11/25 07:23:43;;;;;;;2.33;2.23;;;1.00;56.30;;;;;;5023163;28;20231;-64
2023/11/25 07:26:11;;;;;;;3.00;2.50;;;0.90;55.70;;;;;;5021499;28;20232;-64
2023/11/25 07:28:38;;;;;;;3.87;2.40;;;0.90;56.40;;;;;;5024046;28;20294;-64
2023/11/25 07:31:04;;;;;;;4.37;2.20;;;0.90;56.20;;;;;;5015448;28;20434;-63
2023/11/25 07:33:31;;;;;;;2.60;2.40;;;0.90;56.50;;;;;;5019390;28;20247;-63
2023/11/25 07:38:33;;;;;;;2.47;2.27;;;1.00;56.20;;;;;;5116349;22;20243;-62
2023/11/25 07:40:59;;;;;;;3.93;2.50;;;0.90;56.20;;;;;;5012082;28;20232;-60
2023/11/25 07:43:26;;;;;;;3.00;2.20;;;1.00;56.30;;;;;;5018520;28;20220;-63
2023/11/25 07:45:53;;;;;;;2.30;2.20;;;1.00;56.30;;;;;;5033542;28;20231;-63
2023/11/25 07:48:19;;;;;;;3.10;2.80;;;1.00;56.40;;;;;;4979528;28;20231;-63
2023/11/25 07:50:47;;;;;;;2.50;2.40;;;1.10;55.90;;;;;;5004918;28;20217;-63
2023/11/25 07:53:13;;;;;;;2.37;2.13;;;1.10;55.30;;;;;;5015483;28;20789;-61
2023/11/25 07:55:40;;;;;;;2.90;2.23;;;1.10;55.50;;;;;;5019334;28;20232;-62
2023/11/25 07:58:06;;;;;;;5.30;2.60;;;1.00;55.70;;;;;;5026238;28;20620;-63
2023/11/25 08:00:33;;;;;;;2.97;2.27;;;1.00;55.30;;;;;;5025848;28;20259;-60
2023/11/25 08:02:59;;;;;;;3.87;2.43;;;1.00;54.80;;;;;;5015011;28;20212;-62
2023/11/25 08:05:26;;;;;;;5.50;2.33;;;1.10;55.40;;;;;;5017623;28;20224;-62
2023/11/25 08:07:52;;;;;;;4.87;2.97;;;0.90;54.90;;;;;;5018403;28;20215;-66
2023/11/25 08:10:19;;;;;;;3.17;2.47;;;0.90;55.00;;;;;;5023644;28;20643;-69
2023/11/25 08:12:46;;;;;;;3.93;2.37;;;1.30;54.90;;;;;;5027525;28;20240;-64
2023/11/25 08:15:13;;;;;;;2.70;2.40;;;1.40;53.70;;;;;;5030281;28;20229;-62
2023/11/25 08:17:41;;;;;;;3.23;2.30;;;1.40;53.40;;;;;;5022398;28;20217;-63
2023/11/25 08:20:08;;;;;;;3.97;2.50;;;1.70;53.20;;;;;;5026254;28;20257;-64
2023/11/25 08:22:36;;;;;;;3.40;2.30;;;1.70;52.00;;;;;;5017932;28;20237;-63
2023/11/25 08:25:07;;;;;;;3.53;2.30;;;1.70;52.00;;;;;;5025249;28;20297;-63
2023/11/25 08:27:34;;;;;;;3.50;2.70;;;1.70;52.00;;;;;;5030582;28;20209;-63
2023/11/25 08:30:00;;;;;;;3.30;2.40;;;1.80;51.80;;;;;;5023919;28;20242;-64
2023/11/25 08:32:27;;;;;;;2.90;2.50;;;1.80;51.80;;;;;;5023750;28;20245;-63
2023/11/25 08:34:53;;;;;;;2.13;2.00;;;1.70;51.30;;;;;;4998778;28;20240;-64
2023/11/25 08:37:27;;;;;;;2.50;2.30;;;1.70;51.50;;;;;;5027536;28;20288;-62
2023/11/25 08:39:53;;;;;;;3.43;2.20;;;1.60;50.70;;;;;;5024727;28;20221;-63
2023/11/25 08:42:20;;;;;;;3.57;2.50;;;1.70;52.00;;;;;;5018168;28;20707;-63
2023/11/25 08:44:48;;;;;;;2.97;2.30;;;1.70;51.40;;;;;;5015205;28;20225;-62
2023/11/25 08:47:14;;;;;;;4.00;2.60;;;1.70;51.70;;;;;;5022192;28;20371;-62
2023/11/25 08:49:41;;;;;;;3.03;2.83;;;1.80;51.90;;;;;;5028414;28;20209;-62
2023/11/25 08:54:36;;;;;;;4.90;2.50;;;1.70;51.30;;;;;;5038917;28;20229;-62
2023/11/25 08:57:03;;;;;;;2.77;2.33;;;1.60;52.00;;;;;;5025367;28;20300;-62
2023/11/25 08:59:31;;;;;;;2.63;2.43;;;1.70;52.00;;;;;;5029132;28;20205;-63
2023/11/25 09:01:58;;;;;;;5.17;2.30;;;1.70;51.50;;;;;;5025457;28;20296;-63
2023/11/25 09:04:26;;;;;;;4.60;2.50;;;1.70;51.10;;;;;;5029616;28;20217;-63
2023/11/25 09:06:52;;;;;;;4.20;2.27;;;1.70;51.80;;;;;;5034519;28;20220;-63
2023/11/25 09:09:19;;;;;;;2.37;2.07;;;1.90;52.10;;;;;;5025808;28;20225;-63
2023/11/25 09:11:45;;;;;;;3.77;2.43;;;1.80;51.30;;;;;;5033531;28;20217;-63
2023/11/25 09:14:14;;;;;;;4.23;2.57;;;1.80;52.10;;;;;;5020563;28;20302;-63
2023/11/25 09:16:42;;;;;;;2.70;2.50;;;1.70;51.20;;;;;;5031565;28;20229;-63
2023/11/25 09:19:09;;;;;;;3.47;2.43;;;1.70;51.90;;;;;;5027492;28;20217;-62
2023/11/25 09:21:35;;;;;;;3.30;2.63;;;1.80;52.00;;;;;;5031049;28;20213;-63
2023/11/25 09:24:02;;;;;;;3.27;2.60;;;2.00;51.80;;;;;;5033978;28;20645;-62
2023/11/25 09:26:28;;;;;;;3.50;2.47;;;2.00;50.90;;;;;;5026055;28;20253;-63
2023/11/25 09:28:55;;;;;;;3.73;2.77;;;2.00;51.10;;;;;;5032451;28;20268;-63
2023/11/25 09:31:22;;;;;;;4.63;2.57;;;2.00;51.00;;;;;;5019986;28;20210;-62
2023/11/25 09:33:49;;;;;;;6.70;2.83;;;2.00;51.20;;;;;;5033011;28;20220;-63
2023/11/25 09:36:16;;;;;;;3.27;2.53;;;2.00;51.90;;;;;;5033559;28;20229;-63
2023/11/25 09:38:42;;;;;;;3.60;2.70;;;2.00;51.50;;;;;;5028558;28;20214;-63
2023/11/25 09:41:09;;;;;;;5.77;2.80;;;2.10;52.30;;;;;;5028413;28;20265;-63
2023/11/25 09:43:36;;;;;;;6.53;2.90;;;2.00;51.60;;;;;;5011872;28;20639;-63
2023/11/25 09:46:02;;;;;;;5.07;3.00;;;2.00;52.30;;;;;;5022366;28;20682;-63
2023/11/25 09:48:30;;;;;;;3.63;2.83;;;2.00;52.80;;;;;;5018763;28;20229;-63
2023/11/25 09:50:57;;;;;;;4.23;2.83;;;2.00;52.30;;;;;;5021263;28;20241;-63
2023/11/25 09:53:22;;;;;;;2.87;2.63;;;2.00;52.90;;;;;;5008523;28;20319;-62
2023/11/25 09:55:50;;;;;;;4.73;3.13;;;2.00;53.40;;;;;;5020969;28;20222;-64
2023/11/25 09:58:17;;;;;;;3.87;2.80;;;1.90;52.20;;;;;;5025746;28;20216;-63
2023/11/25 10:00:44;;;;;;;3.57;2.60;;;1.90;52.40;;;;;;5027599;28;20201;-62
2023/11/25 10:03:10;;;;;;;4.13;3.77;;;1.90;52.80;;;;;;5019754;28;20206;-63
2023/11/25 10:05:37;;;;;;;3.10;2.73;;;2.00;52.30;;;;;;5026538;28;20229;-63
2023/11/25 10:08:04;;;;;;;3.37;3.00;;;2.00;52.30;;;;;;5029721;28;20230;-64
2023/11/25 10:10:30;;;;;;;5.17;2.53;;;2.00;52.80;;;;;;5031616;28;20211;-63
2023/11/25 10:12:57;;;;;;;5.93;3.23;;;2.00;52.90;;;;;;5025131;28;20206;-63
2023/11/25 10:15:24;;;;;;;5.77;2.73;;;1.70;52.60;;;;;;5023005;28;20335;-63
2023/11/25 10:17:50;;;;;;;3.13;2.40;;;1.80;53.20;;;;;;5020285;28;20736;-63
2023/11/25 10:20:20;;;;;;;2.97;2.70;;;1.90;53.40;;;;;;5021443;28;20202;-63
2023/11/25 10:22:46;;;;;;;5.47;3.10;;;1.90;53.40;;;;;;5025030;28;20205;-63
2023/11/25 10:25:15;;;;;;;5.17;2.90;;;1.90;53.20;;;;;;5032489;28;20313;-63
2023/11/25 10:27:41;;;;;;;3.00;2.70;;;2.00;53.40;;;;;;5028536;28;20202;-62
2023/11/25 10:30:08;;;;;;;3.10;2.90;;;2.00;53.70;;;;;;5023446;28;20209;-62
2023/11/25 10:32:35;;;;;;;4.37;3.17;;;2.10;53.10;;;;;;5024557;28;20213;-68
2023/11/25 10:35:02;;;;;;;3.83;3.47;;;2.20;53.00;;;;;;5026327;28;20497;-64
2023/11/25 10:37:28;;;;;;;3.17;2.87;;;2.10;52.90;;;;;;5025662;28;20280;-63
2023/11/25 10:39:55;;;;;;;4.20;2.67;;;2.20;53.10;;;;;;5026162;28;20642;-64
2023/11/25 10:42:21;;;;;;;4.70;2.97;;;2.10;52.50;;;;;;5027311;28;20557;-64
2023/11/25 10:44:48;;;;;;;3.77;2.70;;;2.20;52.90;;;;;;5014679;28;20265;-63
2023/11/25 10:47:15;;;;;;;2.63;2.40;;;2.20;53.00;;;;;;5027749;28;20209;-63
2023/11/25 10:49:41;;;;;;;2.90;2.60;;;2.20;53.00;;;;;;5028852;28;20601;-64
2023/11/25 10:52:08;;;;;;;3.93;2.70;;;2.20;52.40;;;;;;5011458;28;20254;-64
2023/11/25 10:54:35;;;;;;;2.97;2.73;;;2.20;52.40;;;;;;5016907;28;20251;-63
2023/11/25 10:57:04;;;;;;;13.43;5.37;;;2.30;53.10;;;;;;5024235;28;20321;-64
2023/11/25 10:59:31;;;;;;;4.83;3.00;;;2.10;52.60;;;;;;5024625;28;20585;-64
2023/11/25 11:01:59;;;;;;;3.23;2.97;;;2.00;52.80;;;;;;5026571;28;20530;-65
2023/11/25 11:04:25;;;;;;;5.47;2.80;;;2.10;53.20;;;;;;5022604;28;20201;-65
2023/11/25 11:06:54;;;;;;;3.67;2.83;;;2.00;53.40;;;;;;5008337;28;20197;-64
2023/11/25 11:09:22;;;;;;;3.47;2.60;;;2.10;53.50;;;;;;5017634;28;20206;-65
2023/11/25 11:11:49;;;;;;;4.70;3.00;;;2.20;53.80;;;;;;5019881;28;20241;-66
2023/11/25 11:14:15;;;;;;;5.87;2.90;;;2.30;53.80;;;;;;5022331;28;20443;-65
2023/11/25 11:16:42;;;;;;;3.10;2.83;;;2.40;52.60;;;;;;5018593;28;20319;-64
2023/11/25 11:19:08;;;;;;;4.07;2.63;;;2.60;52.70;;;;;;5022847;28;20639;-65
2023/11/25 11:21:35;;;;;;;4.73;3.27;;;2.60;52.30;;;;;;5026304;28;20237;-64
2023/11/25 11:24:01;;;;;;;4.93;3.07;;;2.60;52.60;;;;;;5013828;28;20301;-65
2023/11/25 11:26:28;;;;;;;3.77;3.00;;;2.40;52.30;;;;;;5022252;28;20704;-68
2023/11/25 11:28:54;;;;;;;4.47;3.00;;;2.60;52.70;;;;;;5022050;28;20637;-65
2023/11/25 11:31:21;;;;;;;4.93;3.13;;;2.50;51.70;;;;;;5022358;28;20661;-65
2023/11/25 11:33:47;;;;;;;4.37;3.13;;;2.50;52.70;;;;;;5024525;28;20251;-65
2023/11/25 11:36:14;;;;;;;5.80;2.77;;;2.40;52.60;;;;;;5014486;28;20316;-65
2023/11/25 11:38:41;;;;;;;5.17;2.47;;;2.30;52.60;;;;;;5015330;28;20211;-65
2023/11/25 11:41:07;;;;;;;4.33;3.20;;;2.30;52.50;;;;;;5023154;28;20306;-65
2023/11/25 11:43:34;;;;;;;4.40;3.20;;;2.20;53.10;;;;;;5011198;28;20210;-65
2023/11/25 11:46:00;;;;;;;4.27;3.13;;;2.30;53.50;;;;;;5018704;28;20250;-65
2023/11/25 11:48:27;;;;;;;6.27;3.43;;;2.30;53.40;;;;;;5027328;28;20581;-65
2023/11/25 11:50:54;;;;;;;4.13;2.57;;;2.30;53.50;;;;;;5025593;28;20641;-65
2023/11/25 11:53:21;;;;;;;6.20;2.93;;;2.40;53.10;;;;;;5020970;28;20218;-65
2023/11/25 11:55:47;;;;;;;5.87;2.90;;;2.40;53.30;;;;;;5018950;28;20325;-63
2023/11/25 11:58:14;;;;;;;4.23;3.00;;;2.20;52.70;;;;;;5023011;28;20231;-65
2023/11/25 12:00:41;;;;;;;9.47;3.53;;;2.20;53.70;;;;;;5023372;28;20210;-66
2023/11/25 12:03:08;;;;;;;3.40;2.97;;;2.30;53.20;;;;;;5019284;28;20213;-64
2023/11/25 12:05:35;;;;;;;4.87;3.23;;;2.20;53.10;;;;;;5025669;28;20233;-65
2023/11/25 12:08:01;;;;;;;3.30;3.00;;;2.20;53.60;;;;;;5016795;28;20657;-65
2023/11/25 12:10:28;;;;;;;7.23;3.40;;;2.30;53.20;;;;;;5022619;28;20685;-66
2023/11/25 12:12:54;;;;;;;3.83;2.63;;;2.50;52.70;;;;;;5019867;28;20232;-66
2023/11/25 12:15:21;;;;;;;4.20;2.87;;;2.70;52.80;;;;;;5030144;28;20234;-65
2023/11/25 12:17:47;;;;;;;4.43;3.20;;;2.80;52.50;;;;;;5028450;28;20222;-66
2023/11/25 12:20:14;;;;;;;3.30;2.60;;;3.50;51.30;;;;;;5023510;28;20230;-66
2023/11/25 12:22:41;;;;;;;4.53;2.60;;;3.70;49.80;;;;;;5027551;28;20206;-65
2023/11/25 12:25:13;;;;;;;5.40;2.77;;;3.70;50.00;;;;;;5033113;28;20770;-66
2023/11/25 12:27:40;;;;;;;4.53;2.57;;;3.40;49.90;;;;;;5011449;28;20202;-66
2023/11/25 12:30:06;;;;;;;7.20;4.43;;;3.20;50.80;;;;;;5019468;28;21067;-66
2023/11/25 12:32:33;;;;;;;2.93;2.53;;;3.50;49.70;;;;;;5032867;28;20863;-62
2023/11/25 12:34:59;;;;;;;3.37;2.70;;;3.50;49.40;;;;;;5028836;28;20260;-63
2023/11/25 12:37:26;;;;;;;2.73;2.50;;;3.70;49.90;;;;;;5023883;28;20278;-65
2023/11/25 12:39:53;;;;;;;7.53;2.80;;;3.40;49.00;;;;;;5025492;28;20246;-65
2023/11/25 12:42:20;;;;;;;4.57;2.50;;;3.40;50.20;;;;;;5026412;28;20241;-65
2023/11/25 12:44:46;;;;;;;3.60;2.63;;;3.40;50.00;;;;;;5029604;28;20226;-65
2023/11/25 12:47:15;;;;;;;6.63;2.77;;;3.30;49.90;;;;;;5025509;28;20234;-64
2023/11/25 12:49:41;;;;;;;4.60;2.40;;;3.30;49.90;;;;;;5025213;28;20656;-65
2023/11/25 12:52:08;;;;;;;4.77;2.23;;;3.50;49.70;;;;;;5022996;28;20237;-65
2023/11/25 12:54:34;;;;;;;3.10;2.23;;;3.70;49.00;;;;;;5026036;28;20224;-64
2023/11/25 12:57:01;;;;;;;5.10;2.73;;;3.20;49.90;;;;;;5027546;28;20227;-64
2023/11/25 12:59:28;;;;;;;5.40;2.40;;;3.20;51.20;;;;;;5034262;28;20216;-65